Time,TemperatureF,DewpointF,PressureIn,WindDirection,WindDirectionDegrees,WindSpeedMPH,WindSpeedGustMPH,Humidity,HourlyPrecipIn,Conditions,Clouds,dailyrainin,SoftwareType,DateUTC
2013-07-23 00:01:00,70.9,69.4,29.78,SSE,156,0.0,6.0,95,0.04,,,0.00,WUHU216DAVISVP2,2013-07-23 04:01:00,
2013-07-23 00:02:00,70.9,69.4,29.78,SSE,148,2.0,6.0,95,0.04,,,0.00,WUHU216DAVISVP2,2013-07-23 04:02:00,
2013-07-23 00:07:00,70.9,69.7,29.78,SE,138,1.0,4.0,96,0.05,,,0.01,WUHU216DAVISVP2,2013-07-23 04:07:00,
2013-07-23 00:12:00,70.8,69.6,29.78,SSE,147,1.0,4.0,96,0.04,,,0.01,WUHU216DAVISVP2,2013-07-23 04:12:00,
2013-07-23 00:17:00,70.8,69.6,29.78,SE,129,1.0,4.0,96,0.05,,,0.02,WUHU216DAVISVP2,2013-07-23 04:17:00,
2013-07-23 00:22:00,70.8,69.6,29.78,South,174,0.0,3.0,96,0.05,,,0.02,WUHU216DAVISVP2,2013-07-23 04:22:00,
2013-07-23 00:27:00,70.9,69.7,29.78,SSE,158,0.0,4.0,96,0.06,,,0.03,WUHU216DAVISVP2,2013-07-23 04:27:00,
2013-07-23 00:32:00,70.9,69.7,29.77,SSE,152,2.0,5.0,96,0.05,,,0.03,WUHU216DAVISVP2,2013-07-23 04:32:00,
2013-07-23 00:37:00,70.9,70.0,29.77,SSE,157,0.0,7.0,97,0.06,,,0.04,WUHU216DAVISVP2,2013-07-23 04:37:00,
2013-07-23 00:42:00,70.9,70.0,29.77,SE,141,1.0,7.0,97,0.05,,,0.04,WUHU216DAVISVP2,2013-07-23 04:42:00,
2013-07-23 00:47:00,70.9,70.0,29.77,SSE,152,0.0,7.0,97,0.06,,,0.05,WUHU216DAVISVP2,2013-07-23 04:47:00,
2013-07-23 00:52:00,70.9,70.0,29.77,SE,128,1.0,7.0,97,0.05,,,0.05,WUHU216DAVISVP2,2013-07-23 04:52:00,
2013-07-23 00:57:00,70.9,70.0,29.77,SSE,155,1.0,4.0,97,0.06,,,0.06,WUHU216DAVISVP2,2013-07-23 04:57:00,
2013-07-23 01:02:00,70.9,70.0,29.76,SSE,152,0.0,4.0,97,0.07,,,0.07,WUHU216DAVISVP2,2013-07-23 05:02:00,
2013-07-23 01:07:00,70.9,70.0,29.76,SE,141,0.0,4.0,97,0.07,,,0.08,WUHU216DAVISVP2,2013-07-23 05:07:00,
2013-07-23 01:12:00,70.8,69.9,29.76,SE,143,0.0,4.0,97,0.07,,,0.09,WUHU216DAVISVP2,2013-07-23 05:12:00,
2013-07-23 01:17:00,70.8,69.9,29.75,SE,141,2.0,3.0,97,0.07,,,0.09,WUHU216DAVISVP2,2013-07-23 05:17:00,
2013-07-23 01:22:00,70.7,69.8,29.75,South,170,0.0,2.0,97,0.08,,,0.10,WUHU216DAVISVP2,2013-07-23 05:22:00,
2013-07-23 01:27:00,70.7,69.8,29.75,SE,131,1.0,3.0,97,0.07,,,0.10,WUHU216DAVISVP2,2013-07-23 05:27:00,
2013-07-23 01:32:00,70.6,69.7,29.75,SSE,165,1.0,3.0,97,0.08,,,0.11,WUHU216DAVISVP2,2013-07-23 05:32:00,
2013-07-23 01:37:00,70.6,69.7,29.74,SE,146,0.0,3.0,97,0.08,,,0.12,WUHU216DAVISVP2,2013-07-23 05:37:00,
2013-07-23 01:42:00,70.5,69.6,29.74,SSE,147,0.0,3.0,97,0.08,,,0.12,WUHU216DAVISVP2,2013-07-23 05:42:00,
2013-07-23 01:47:00,70.4,69.5,29.74,SSE,162,1.0,3.0,97,0.07,,,0.12,WUHU216DAVISVP2,2013-07-23 05:47:00,
2013-07-23 01:52:00,70.3,69.4,29.74,SE,144,0.0,2.0,97,0.08,,,0.13,WUHU216DAVISVP2,2013-07-23 05:52:00,
2013-07-23 01:57:00,70.1,69.2,29.74,South,190,0.0,4.0,97,0.08,,,0.14,WUHU216DAVISVP2,2013-07-23 05:57:00,
2013-07-23 02:02:00,70.1,69.2,29.74,SSE,155,0.0,4.0,97,0.08,,,0.15,WUHU216DAVISVP2,2013-07-23 06:02:00,
2013-07-23 02:07:00,70.1,69.2,29.73,SSE,155,0.0,4.0,97,0.07,,,0.15,WUHU216DAVISVP2,2013-07-23 06:07:00,
2013-07-23 02:12:00,70.1,69.2,29.73,SSE,162,0.0,4.0,97,0.07,,,0.16,WUHU216DAVISVP2,2013-07-23 06:12:00,
2013-07-23 02:17:00,70.1,69.2,29.73,SSE,163,0.0,2.0,97,0.07,,,0.16,WUHU216DAVISVP2,2013-07-23 06:17:00,
2013-07-23 02:22:00,70.1,69.2,29.73,SSE,163,0.0,1.0,97,0.07,,,0.17,WUHU216DAVISVP2,2013-07-23 06:22:00,
2013-07-23 02:27:00,70.0,69.1,29.73,SE,145,0.0,1.0,97,0.07,,,0.17,WUHU216DAVISVP2,2013-07-23 06:27:00,
2013-07-23 02:32:00,70.0,69.1,29.73,SE,146,0.0,2.0,97,0.07,,,0.18,WUHU216DAVISVP2,2013-07-23 06:32:00,
2013-07-23 02:37:00,69.9,69.0,29.73,SSE,167,0.0,2.0,97,0.07,,,0.19,WUHU216DAVISVP2,2013-07-23 06:37:00,
2013-07-23 02:42:00,70.0,69.1,29.72,WSW,240,0.0,2.0,97,0.08,,,0.20,WUHU216DAVISVP2,2013-07-23 06:42:00,
2013-07-23 02:47:00,70.0,69.1,29.72,SW,236,0.0,2.0,97,0.09,,,0.21,WUHU216DAVISVP2,2013-07-23 06:47:00,
2013-07-23 02:52:00,70.0,69.1,29.72,SSE,147,0.0,1.0,97,0.09,,,0.22,WUHU216DAVISVP2,2013-07-23 06:52:00,
2013-07-23 02:57:00,69.9,69.0,29.72,SE,139,0.0,1.0,97,0.08,,,0.22,WUHU216DAVISVP2,2013-07-23 06:57:00,
2013-07-23 03:02:00,69.9,69.0,29.72,SE,134,0.0,2.0,97,0.08,,,0.23,WUHU216DAVISVP2,2013-07-23 07:02:00,
2013-07-23 03:07:00,69.9,69.0,29.71,SSE,158,0.0,2.0,97,0.08,,,0.23,WUHU216DAVISVP2,2013-07-23 07:07:00,
2013-07-23 03:12:00,69.9,69.0,29.71,SE,129,0.0,2.0,97,0.08,,,0.24,WUHU216DAVISVP2,2013-07-23 07:12:00,
2013-07-23 03:17:00,69.9,69.0,29.71,SSE,152,1.0,2.0,97,0.08,,,0.24,WUHU216DAVISVP2,2013-07-23 07:17:00,
2013-07-23 03:22:00,69.8,68.9,29.71,SSW,197,0.0,2.0,97,0.08,,,0.25,WUHU216DAVISVP2,2013-07-23 07:22:00,
2013-07-23 03:27:00,69.8,68.9,29.71,SE,146,0.0,2.0,97,0.08,,,0.25,WUHU216DAVISVP2,2013-07-23 07:27:00,
2013-07-23 03:32:00,69.8,68.9,29.70,SE,146,0.0,2.0,97,0.08,,,0.26,WUHU216DAVISVP2,2013-07-23 07:32:00,
2013-07-23 03:37:00,69.7,68.8,29.70,SE,145,0.0,1.0,97,0.07,,,0.26,WUHU216DAVISVP2,2013-07-23 07:37:00,
2013-07-23 03:42:00,69.7,68.8,29.70,SE,145,0.0,1.0,97,0.07,,,0.27,WUHU216DAVISVP2,2013-07-23 07:42:00,
2013-07-23 03:47:00,69.7,68.8,29.70,SE,146,0.0,1.0,97,0.06,,,0.27,WUHU216DAVISVP2,2013-07-23 07:47:00,
2013-07-23 03:52:00,69.7,69.1,29.70,SE,146,0.0,0.0,98,0.06,,,0.28,WUHU216DAVISVP2,2013-07-23 07:52:00,
2013-07-23 03:57:00,69.7,69.1,29.70,SE,145,0.0,0.0,98,0.06,,,0.28,WUHU216DAVISVP2,2013-07-23 07:57:00,
2013-07-23 04:02:00,69.7,69.1,29.70,SE,145,0.0,0.0,98,0.05,,,0.28,WUHU216DAVISVP2,2013-07-23 08:02:00,
2013-07-23 04:07:00,69.7,69.1,29.70,SE,146,0.0,0.0,98,0.06,,,0.29,WUHU216DAVISVP2,2013-07-23 08:07:00,
2013-07-23 04:12:00,69.7,69.1,29.70,SE,146,0.0,0.0,98,0.05,,,0.29,WUHU216DAVISVP2,2013-07-23 08:12:00,
2013-07-23 04:17:00,69.7,69.1,29.70,SE,145,0.0,0.0,98,0.05,,,0.29,WUHU216DAVISVP2,2013-07-23 08:17:00,
2013-07-23 04:22:00,69.7,69.1,29.69,SE,145,0.0,0.0,98,0.05,,,0.30,WUHU216DAVISVP2,2013-07-23 08:22:00,
2013-07-23 04:27:00,69.8,69.2,29.69,SE,129,0.0,1.0,98,0.05,,,0.30,WUHU216DAVISVP2,2013-07-23 08:27:00,
2013-07-23 04:32:00,69.8,69.2,29.69,SE,128,0.0,1.0,98,0.04,,,0.30,WUHU216DAVISVP2,2013-07-23 08:32:00,
2013-07-23 04:37:00,69.8,69.2,29.69,SE,129,0.0,1.0,98,0.05,,,0.31,WUHU216DAVISVP2,2013-07-23 08:37:00,
2013-07-23 04:42:00,69.8,69.2,29.69,SE,129,0.0,1.0,98,0.04,,,0.31,WUHU216DAVISVP2,2013-07-23 08:42:00,
2013-07-23 04:47:00,69.8,69.2,29.69,SE,129,0.0,0.0,98,0.04,,,0.31,WUHU216DAVISVP2,2013-07-23 08:47:00,
2013-07-23 04:52:00,69.7,69.1,29.69,ENE,67,1.0,2.0,98,0.04,,,0.32,WUHU216DAVISVP2,2013-07-23 08:52:00,
2013-07-23 04:57:00,69.7,69.1,29.69,ENE,65,0.0,2.0,98,0.04,,,0.32,WUHU216DAVISVP2,2013-07-23 08:57:00,
2013-07-23 05:02:00,69.7,69.1,29.69,East,96,0.0,1.0,98,0.05,,,0.33,WUHU216DAVISVP2,2013-07-23 09:02:00,
2013-07-23 05:07:00,69.7,69.1,29.69,NE,44,1.0,2.0,98,0.04,,,0.33,WUHU216DAVISVP2,2013-07-23 09:07:00,
2013-07-23 05:12:00,69.6,69.0,29.69,NNE,22,0.0,2.0,98,0.05,,,0.34,WUHU216DAVISVP2,2013-07-23 09:12:00,
2013-07-23 05:16:00,69.6,69.0,29.69,NE,41,0.0,2.0,98,0.05,,,0.34,WUHU216DAVISVP2,2013-07-23 09:16:00,
2013-07-23 05:21:00,69.6,69.0,29.68,NNE,25,0.0,3.0,98,0.05,,,0.35,WUHU216DAVISVP2,2013-07-23 09:21:00,
2013-07-23 05:26:00,69.6,69.0,29.69,NNE,33,1.0,3.0,98,0.05,,,0.35,WUHU216DAVISVP2,2013-07-23 09:26:00,
2013-07-23 05:31:00,69.5,68.9,29.69,NE,44,1.0,3.0,98,0.06,,,0.36,WUHU216DAVISVP2,2013-07-23 09:31:00,
2013-07-23 05:36:00,69.4,68.8,29.69,NE,39,3.0,3.0,98,0.06,,,0.37,WUHU216DAVISVP2,2013-07-23 09:36:00,
2013-07-23 05:41:00,69.3,68.7,29.69,NE,45,0.0,3.0,98,0.06,,,0.37,WUHU216DAVISVP2,2013-07-23 09:41:00,
2013-07-23 05:46:00,69.2,68.6,29.69,ENE,65,0.0,3.0,98,0.07,,,0.38,WUHU216DAVISVP2,2013-07-23 09:46:00,
2013-07-23 05:51:00,69.2,68.6,29.69,ENE,65,0.0,2.0,98,0.06,,,0.38,WUHU216DAVISVP2,2013-07-23 09:51:00,
2013-07-23 05:56:00,69.0,68.4,29.69,ESE,103,0.0,2.0,98,0.06,,,0.38,WUHU216DAVISVP2,2013-07-23 09:56:00,
2013-07-23 06:01:00,68.8,68.2,29.69,ENE,58,1.0,2.0,98,0.06,,,0.39,WUHU216DAVISVP2,2013-07-23 10:01:00,
2013-07-23 06:06:00,68.8,68.2,29.69,East,86,0.0,2.0,98,0.06,,,0.39,WUHU216DAVISVP2,2013-07-23 10:06:00,
2013-07-23 06:12:00,68.7,68.1,29.69,East,95,0.0,2.0,98,0.05,,,0.39,WUHU216DAVISVP2,2013-07-23 10:12:00,
2013-07-23 06:16:00,68.7,68.1,29.68,East,95,0.0,2.0,98,0.05,,,0.39,WUHU216DAVISVP2,2013-07-23 10:16:00,
2013-07-23 06:21:00,68.7,67.8,29.69,East,95,0.0,2.0,97,0.04,,,0.39,WUHU216DAVISVP2,2013-07-23 10:21:00,
2013-07-23 06:26:00,68.6,67.7,29.69,East,95,0.0,1.0,97,0.03,,,0.39,WUHU216DAVISVP2,2013-07-23 10:26:00,
2013-07-23 06:31:00,68.6,67.7,29.69,East,95,0.0,1.0,97,0.04,,,0.40,WUHU216DAVISVP2,2013-07-23 10:31:00,
2013-07-23 06:36:00,68.6,67.7,29.69,East,94,0.0,1.0,97,0.03,,,0.40,WUHU216DAVISVP2,2013-07-23 10:36:00,
2013-07-23 06:41:00,68.5,67.6,29.69,East,95,0.0,1.0,97,0.03,,,0.40,WUHU216DAVISVP2,2013-07-23 10:41:00,
2013-07-23 06:46:00,68.6,67.7,29.69,NNE,20,0.0,1.0,97,0.02,,,0.40,WUHU216DAVISVP2,2013-07-23 10:46:00,
2013-07-23 06:51:00,68.6,67.7,29.69,NNE,13,0.0,1.0,97,0.02,,,0.40,WUHU216DAVISVP2,2013-07-23 10:51:00,
2013-07-23 06:56:00,68.6,67.7,29.69,NNW,340,0.0,1.0,97,0.03,,,0.41,WUHU216DAVISVP2,2013-07-23 10:56:00,
2013-07-23 07:01:00,68.7,68.1,29.69,NNW,333,1.0,1.0,98,0.02,,,0.41,WUHU216DAVISVP2,2013-07-23 11:01:00,
2013-07-23 07:06:00,68.7,67.8,29.69,NNW,338,0.0,1.0,97,0.02,,,0.41,WUHU216DAVISVP2,2013-07-23 11:06:00,
2013-07-23 07:11:00,68.7,68.1,29.68,NNW,340,0.0,2.0,98,0.03,,,0.42,WUHU216DAVISVP2,2013-07-23 11:11:00,
2013-07-23 07:16:00,68.8,68.2,29.68,NNW,340,0.0,2.0,98,0.03,,,0.42,WUHU216DAVISVP2,2013-07-23 11:16:00,
2013-07-23 07:22:00,68.7,68.1,29.69,NNW,331,1.0,3.0,98,0.03,,,0.42,WUHU216DAVISVP2,2013-07-23 11:22:00,
2013-07-23 07:27:00,68.8,68.2,29.69,NW,326,1.0,3.0,98,0.03,,,0.42,WUHU216DAVISVP2,2013-07-23 11:27:00,
2013-07-23 07:32:00,68.6,68.0,29.69,NW,323,2.0,3.0,98,0.02,,,0.42,WUHU216DAVISVP2,2013-07-23 11:32:00,
2013-07-23 07:37:00,68.4,67.5,29.69,North,351,0.0,3.0,97,0.03,,,0.43,WUHU216DAVISVP2,2013-07-23 11:37:00,
2013-07-23 07:42:00,68.2,67.3,29.69,NNW,340,1.0,3.0,97,0.04,,,0.44,WUHU216DAVISVP2,2013-07-23 11:42:00,
2013-07-23 07:47:00,67.5,66.6,29.69,NE,36,4.0,6.0,97,0.05,,,0.45,WUHU216DAVISVP2,2013-07-23 11:47:00,
2013-07-23 07:52:00,67.1,65.9,29.69,NE,45,0.0,6.0,96,0.06,,,0.46,WUHU216DAVISVP2,2013-07-23 11:52:00,
2013-07-23 07:57:00,67.0,66.1,29.69,NE,43,0.0,6.0,97,0.06,,,0.47,WUHU216DAVISVP2,2013-07-23 11:57:00,
2013-07-23 08:02:00,66.9,66.0,29.68,NE,40,0.0,6.0,97,0.06,,,0.47,WUHU216DAVISVP2,2013-07-23 12:02:00,
2013-07-23 08:07:00,67.0,66.1,29.69,NE,40,0.0,3.0,97,0.06,,,0.47,WUHU216DAVISVP2,2013-07-23 12:07:00,
2013-07-23 08:12:00,67.0,66.1,29.68,SW,228,1.0,3.0,97,0.05,,,0.47,WUHU216DAVISVP2,2013-07-23 12:12:00,
2013-07-23 08:17:00,67.1,66.2,29.68,WSW,248,0.0,2.0,97,0.05,,,0.47,WUHU216DAVISVP2,2013-07-23 12:17:00,
2013-07-23 08:22:00,67.2,66.3,29.68,NNE,18,1.0,2.0,97,0.05,,,0.47,WUHU216DAVISVP2,2013-07-23 12:22:00,
2013-07-23 08:27:00,67.3,66.4,29.68,NNW,338,0.0,2.0,97,0.05,,,0.47,WUHU216DAVISVP2,2013-07-23 12:27:00,
2013-07-23 08:31:00,67.5,66.6,29.69,NNW,335,0.0,2.0,97,0.05,,,0.47,WUHU216DAVISVP2,2013-07-23 12:31:00,
2013-07-23 08:37:00,67.5,66.6,29.69,NW,320,0.0,2.0,97,0.04,,,0.47,WUHU216DAVISVP2,2013-07-23 12:37:00,
2013-07-23 08:42:00,67.6,66.7,29.68,NW,326,0.0,2.0,97,0.03,,,0.47,WUHU216DAVISVP2,2013-07-23 12:42:00,
2013-07-23 08:47:00,67.6,66.7,29.68,NW,326,1.0,2.0,97,0.02,,,0.47,WUHU216DAVISVP2,2013-07-23 12:47:00,
2013-07-23 08:52:00,67.7,66.8,29.69,NW,326,0.0,2.0,97,0.01,,,0.47,WUHU216DAVISVP2,2013-07-23 12:52:00,
2013-07-23 08:57:00,68.0,67.1,29.69,NNW,328,1.0,3.0,97,0.00,,,0.47,WUHU216DAVISVP2,2013-07-23 12:57:00,
2013-07-23 09:02:00,68.0,67.1,29.69,NW,321,0.0,3.0,97,0.00,,,0.47,WUHU216DAVISVP2,2013-07-23 13:02:00,
2013-07-23 09:07:00,68.1,66.9,29.68,North,350,0.0,3.0,96,0.00,,,0.47,WUHU216DAVISVP2,2013-07-23 13:07:00,
2013-07-23 09:12:00,68.3,67.4,29.68,WNW,295,0.0,3.0,97,0.00,,,0.47,WUHU216DAVISVP2,2013-07-23 13:12:00,
2013-07-23 09:17:00,68.5,67.3,29.68,WSW,255,0.0,2.0,96,0.00,,,0.47,WUHU216DAVISVP2,2013-07-23 13:17:00,
2013-07-23 09:22:00,68.9,67.4,29.67,North,358,1.0,2.0,95,0.00,,,0.47,WUHU216DAVISVP2,2013-07-23 13:22:00,
2013-07-23 09:27:00,69.4,68.2,29.67,NNW,333,2.0,3.0,96,0.00,,,0.47,WUHU216DAVISVP2,2013-07-23 13:27:00,
2013-07-23 09:32:00,69.5,68.0,29.67,NNE,30,0.0,3.0,95,0.00,,,0.47,WUHU216DAVISVP2,2013-07-23 13:32:00,
2013-07-23 09:37:00,70.2,68.4,29.67,NE,43,3.0,3.0,94,0.00,,,0.47,WUHU216DAVISVP2,2013-07-23 13:37:00,
2013-07-23 09:42:00,70.5,68.4,29.67,WSW,256,0.0,3.0,93,0.00,,,0.47,WUHU216DAVISVP2,2013-07-23 13:42:00,
2013-07-23 09:47:00,72.1,69.6,29.67,WNW,302,0.0,3.0,92,0.00,,,0.47,WUHU216DAVISVP2,2013-07-23 13:47:00,
2013-07-23 09:52:00,72.5,68.7,29.67,NNW,338,0.0,3.0,88,0.00,,,0.47,WUHU216DAVISVP2,2013-07-23 13:52:00,
2013-07-23 09:57:00,72.6,69.2,29.67,NNE,33,0.0,3.0,89,0.00,,,0.47,WUHU216DAVISVP2,2013-07-23 13:57:00,
2013-07-23 10:02:00,73.0,68.9,29.67,ESE,114,0.0,3.0,87,0.00,,,0.47,WUHU216DAVISVP2,2013-07-23 14:02:00,
2013-07-23 10:07:00,73.7,69.3,29.67,West,274,1.0,3.0,86,0.00,,,0.47,WUHU216DAVISVP2,2013-07-23 14:07:00,
2013-07-23 10:12:00,73.3,69.5,29.68,West,281,2.0,4.0,88,0.00,,,0.47,WUHU216DAVISVP2,2013-07-23 14:12:00,
2013-07-23 10:17:00,72.9,69.5,29.68,WSW,243,0.0,4.0,89,0.00,,,0.47,WUHU216DAVISVP2,2013-07-23 14:17:00,
2013-07-23 10:22:00,73.1,69.0,29.68,West,269,0.0,4.0,87,0.00,,,0.47,WUHU216DAVISVP2,2013-07-23 14:22:00,
2013-07-23 10:27:00,72.8,68.4,29.68,WSW,249,0.0,5.0,86,0.00,,,0.47,WUHU216DAVISVP2,2013-07-23 14:27:00,
2013-07-23 10:32:00,73.2,68.8,29.68,NW,315,1.0,5.0,86,0.00,,,0.47,WUHU216DAVISVP2,2013-07-23 14:32:00,
2013-07-23 10:37:00,74.1,69.0,29.68,West,274,2.0,5.0,84,0.00,,,0.47,WUHU216DAVISVP2,2013-07-23 14:37:00,
2013-07-23 10:42:00,74.7,68.9,29.67,ESE,118,1.0,5.0,82,0.00,,,0.47,WUHU216DAVISVP2,2013-07-23 14:42:00,
2013-07-23 10:47:00,75.7,68.8,29.67,ESE,111,2.0,5.0,79,0.00,,,0.47,WUHU216DAVISVP2,2013-07-23 14:47:00,
2013-07-23 10:52:00,75.1,69.3,29.68,SW,231,2.0,5.0,82,0.00,,,0.47,WUHU216DAVISVP2,2013-07-23 14:52:00,
2013-07-23 10:57:00,74.6,70.2,29.67,NNW,335,4.0,5.0,86,0.00,,,0.47,WUHU216DAVISVP2,2013-07-23 14:57:00,
2013-07-23 11:02:00,75.0,69.5,29.67,WSW,256,1.0,6.0,83,0.00,,,0.47,WUHU216DAVISVP2,2013-07-23 15:02:00,
2013-07-23 11:07:00,75.4,69.6,29.68,East,93,0.0,6.0,82,0.00,,,0.47,WUHU216DAVISVP2,2013-07-23 15:07:00,
2013-07-23 11:12:00,76.0,69.7,29.68,WNW,288,0.0,6.0,81,0.00,,,0.47,WUHU216DAVISVP2,2013-07-23 15:12:00,
2013-07-23 11:17:00,75.5,69.0,29.68,SSW,210,2.0,6.0,80,0.00,,,0.47,WUHU216DAVISVP2,2013-07-23 15:17:00,
2013-07-23 11:22:00,75.5,68.3,29.68,West,276,1.0,5.0,78,0.00,,,0.47,WUHU216DAVISVP2,2013-07-23 15:22:00,
2013-07-23 11:27:00,75.6,68.4,29.68,West,271,2.0,5.0,78,0.00,,,0.47,WUHU216DAVISVP2,2013-07-23 15:27:00,
2013-07-23 11:32:00,75.9,68.3,29.68,WNW,295,2.0,5.0,77,0.00,,,0.47,WUHU216DAVISVP2,2013-07-23 15:32:00,
2013-07-23 11:37:00,76.5,69.3,29.68,NNW,338,1.0,5.0,78,0.00,,,0.47,WUHU216DAVISVP2,2013-07-23 15:37:00,
2013-07-23 11:42:00,77.2,69.6,29.68,NNE,12,2.0,6.0,77,0.00,,,0.47,WUHU216DAVISVP2,2013-07-23 15:42:00,
2013-07-23 11:47:00,77.4,70.9,29.68,NNW,342,0.0,6.0,80,0.00,,,0.47,WUHU216DAVISVP2,2013-07-23 15:47:00,
2013-07-23 11:52:00,77.1,69.7,29.67,NW,314,3.0,6.0,78,0.00,,,0.47,WUHU216DAVISVP2,2013-07-23 15:52:00,
2013-07-23 11:57:00,77.2,70.3,29.67,NW,326,3.0,6.0,79,0.00,,,0.47,WUHU216DAVISVP2,2013-07-23 15:57:00,
2013-07-23 12:02:00,77.4,69.0,29.67,NW,323,1.0,5.0,75,0.00,,,0.47,WUHU216DAVISVP2,2013-07-23 16:02:00,
2013-07-23 12:07:00,77.5,69.9,29.67,North,1,1.0,5.0,77,0.00,,,0.47,WUHU216DAVISVP2,2013-07-23 16:07:00,
2013-07-23 12:12:00,78.4,69.6,29.66,WSW,250,1.0,5.0,74,0.00,,,0.47,WUHU216DAVISVP2,2013-07-23 16:12:00,
2013-07-23 12:17:00,78.6,69.6,29.66,NW,320,1.0,5.0,74,0.00,,,0.47,WUHU216DAVISVP2,2013-07-23 16:17:00,
2013-07-23 12:22:00,78.0,69.0,29.66,WNW,295,2.0,6.0,74,0.00,,,0.47,WUHU216DAVISVP2,2013-07-23 16:22:00,
2013-07-23 12:27:00,78.5,70.1,29.66,SSW,205,2.0,6.0,75,0.00,,,0.47,WUHU216DAVISVP2,2013-07-23 16:27:00,
2013-07-23 12:32:00,78.9,69.3,29.66,WSW,244,0.0,5.0,72,0.00,,,0.47,WUHU216DAVISVP2,2013-07-23 16:32:00,
2013-07-23 12:37:00,79.0,70.2,29.66,NE,41,4.0,6.0,74,0.00,,,0.47,WUHU216DAVISVP2,2013-07-23 16:37:00,
2013-07-23 12:42:00,78.6,69.0,29.66,NW,311,1.0,7.0,72,0.00,,,0.47,WUHU216DAVISVP2,2013-07-23 16:42:00,
2013-07-23 12:47:00,78.2,69.4,29.66,West,266,2.0,7.0,74,0.00,,,0.47,WUHU216DAVISVP2,2013-07-23 16:47:00,
2013-07-23 12:52:00,78.2,69.8,29.65,SSE,153,0.0,6.0,75,0.00,,,0.47,WUHU216DAVISVP2,2013-07-23 16:52:00,
2013-07-23 12:57:00,79.0,69.0,29.65,NE,39,0.0,6.0,71,0.00,,,0.47,WUHU216DAVISVP2,2013-07-23 16:57:00,
2013-07-23 13:02:00,78.8,67.8,29.65,NNE,18,1.0,6.0,69,0.00,,,0.47,WUHU216DAVISVP2,2013-07-23 17:02:00,
2013-07-23 13:07:00,78.6,68.0,29.65,NNE,16,0.0,6.0,70,0.00,,,0.47,WUHU216DAVISVP2,2013-07-23 17:07:00,
2013-07-23 13:12:00,79.3,68.5,29.65,West,277,0.0,6.0,69,0.00,,,0.47,WUHU216DAVISVP2,2013-07-23 17:12:00,
2013-07-23 13:17:00,79.3,69.3,29.65,ENE,57,1.0,6.0,71,0.00,,,0.47,WUHU216DAVISVP2,2013-07-23 17:17:00,
2013-07-23 13:22:00,78.8,69.6,29.65,NW,319,1.0,5.0,73,0.00,,,0.47,WUHU216DAVISVP2,2013-07-23 17:22:00,
2013-07-23 13:27:00,78.9,70.1,29.65,West,280,1.0,5.0,74,0.00,,,0.47,WUHU216DAVISVP2,2013-07-23 17:27:00,
2013-07-23 13:32:00,79.6,70.0,29.65,SW,231,1.0,6.0,72,0.00,,,0.47,WUHU216DAVISVP2,2013-07-23 17:32:00,
2013-07-23 13:37:00,80.1,69.0,29.65,West,281,0.0,6.0,69,0.00,,,0.47,WUHU216DAVISVP2,2013-07-23 17:37:00,
2013-07-23 13:42:00,80.7,69.0,29.65,West,262,5.0,5.0,67,0.00,,,0.47,WUHU216DAVISVP2,2013-07-23 17:42:00,
2013-07-23 13:47:00,80.8,69.1,29.64,SSW,206,0.0,5.0,67,0.00,,,0.47,WUHU216DAVISVP2,2013-07-23 17:47:00,
2013-07-23 13:52:00,81.3,70.0,29.64,West,266,0.0,5.0,68,0.00,,,0.47,WUHU216DAVISVP2,2013-07-23 17:52:00,
2013-07-23 13:57:00,81.4,68.5,29.64,SW,236,1.0,8.0,65,0.00,,,0.47,WUHU216DAVISVP2,2013-07-23 17:57:00,
2013-07-23 14:02:00,81.6,69.8,29.63,NNW,346,2.0,8.0,67,0.00,,,0.47,WUHU216DAVISVP2,2013-07-23 18:02:00,
2013-07-23 14:07:00,81.7,69.0,29.63,SW,235,4.0,7.0,65,0.00,,,0.47,WUHU216DAVISVP2,2013-07-23 18:07:00,
2013-07-23 14:12:00,82.3,69.2,29.63,NW,314,1.0,7.0,64,0.00,,,0.47,WUHU216DAVISVP2,2013-07-23 18:12:00,
2013-07-23 14:17:00,83.0,70.3,29.63,West,267,3.0,6.0,65,0.00,,,0.47,WUHU216DAVISVP2,2013-07-23 18:17:00,
2013-07-23 14:22:00,83.0,69.6,29.63,South,191,1.0,6.0,64,0.00,,,0.47,WUHU216DAVISVP2,2013-07-23 18:22:00,
2013-07-23 14:28:00,83.2,68.8,29.63,WSW,256,1.0,6.0,62,0.00,,,0.47,WUHU216DAVISVP2,2013-07-23 18:28:00,
2013-07-23 14:33:00,82.9,69.3,29.63,South,184,2.0,6.0,63,0.00,,,0.47,WUHU216DAVISVP2,2013-07-23 18:33:00,
2013-07-23 14:38:00,83.6,69.7,29.63,SW,222,7.0,7.0,63,0.00,,,0.47,WUHU216DAVISVP2,2013-07-23 18:38:00,
2013-07-23 14:43:00,83.3,69.7,29.63,West,270,2.0,7.0,63,0.00,,,0.47,WUHU216DAVISVP2,2013-07-23 18:43:00,
2013-07-23 14:48:00,83.1,69.0,29.62,SW,232,5.0,7.0,62,0.00,,,0.47,WUHU216DAVISVP2,2013-07-23 18:48:00,
2013-07-23 14:53:00,83.4,69.7,29.62,West,264,2.0,7.0,63,0.00,,,0.47,WUHU216DAVISVP2,2013-07-23 18:53:00,
2013-07-23 14:58:00,83.8,68.2,29.62,WSW,255,3.0,9.0,59,0.00,,,0.47,WUHU216DAVISVP2,2013-07-23 18:58:00,
2013-07-23 15:03:00,83.5,68.6,29.62,West,259,5.0,9.0,61,0.00,,,0.47,WUHU216DAVISVP2,2013-07-23 19:03:00,
2013-07-23 15:08:00,83.1,69.5,29.62,WSW,251,0.0,8.0,63,0.00,,,0.47,WUHU216DAVISVP2,2013-07-23 19:08:00,
2013-07-23 15:13:00,83.7,69.1,29.62,SW,222,5.0,11.0,61,0.00,,,0.47,WUHU216DAVISVP2,2013-07-23 19:13:00,
2013-07-23 15:18:00,83.6,69.5,29.61,WSW,239,4.0,11.0,62,0.00,,,0.47,WUHU216DAVISVP2,2013-07-23 19:18:00,
2013-07-23 15:23:00,83.8,68.7,29.61,SW,218,0.0,11.0,60,0.00,,,0.47,WUHU216DAVISVP2,2013-07-23 19:23:00,
2013-07-23 15:29:00,84.0,68.9,29.61,West,281,0.0,11.0,60,0.00,,,0.47,WUHU216DAVISVP2,2013-07-23 19:29:00,
2013-07-23 15:34:00,85.1,68.9,29.61,WSW,255,2.0,10.0,58,0.00,,,0.47,WUHU216DAVISVP2,2013-07-23 19:34:00,
2013-07-23 15:39:00,84.5,68.3,29.61,WSW,255,1.0,9.0,58,0.00,,,0.47,WUHU216DAVISVP2,2013-07-23 19:39:00,
2013-07-23 15:44:00,84.3,69.2,29.61,West,267,6.0,10.0,60,0.00,,,0.47,WUHU216DAVISVP2,2013-07-23 19:44:00,
2013-07-23 15:49:00,84.5,70.3,29.60,West,276,1.0,10.0,62,0.00,,,0.47,WUHU216DAVISVP2,2013-07-23 19:49:00,
2013-07-23 15:54:00,85.2,69.5,29.60,South,180,4.0,9.0,59,0.00,,,0.47,WUHU216DAVISVP2,2013-07-23 19:54:00,
2013-07-23 15:59:00,85.1,68.7,29.60,WSW,243,2.0,9.0,58,0.00,,,0.47,WUHU216DAVISVP2,2013-07-23 19:59:00,
2013-07-23 16:04:00,84.1,68.2,29.60,West,278,3.0,8.0,59,0.00,,,0.47,WUHU216DAVISVP2,2013-07-23 20:04:00,
2013-07-23 16:09:00,83.4,68.5,29.60,SE,138,1.0,8.0,61,0.00,,,0.47,WUHU216DAVISVP2,2013-07-23 20:09:00,
2013-07-23 16:14:00,83.9,69.5,29.60,NNW,328,2.0,8.0,62,0.00,,,0.47,WUHU216DAVISVP2,2013-07-23 20:14:00,
2013-07-23 16:19:00,83.7,69.1,29.60,North,8,1.0,8.0,61,0.00,,,0.47,WUHU216DAVISVP2,2013-07-23 20:19:00,
2013-07-23 16:24:00,83.6,69.9,29.60,SW,236,3.0,8.0,63,0.00,,,0.47,WUHU216DAVISVP2,2013-07-23 20:24:00,
2013-07-23 16:29:00,84.3,69.7,29.59,WSW,248,1.0,6.0,61,0.00,,,0.47,WUHU216DAVISVP2,2013-07-23 20:29:00,
2013-07-23 16:34:00,85.0,68.8,29.59,WNW,284,4.0,10.0,58,0.00,,,0.47,WUHU216DAVISVP2,2013-07-23 20:34:00,
2013-07-23 16:39:00,84.9,69.2,29.59,SW,235,1.0,10.0,59,0.00,,,0.47,WUHU216DAVISVP2,2013-07-23 20:39:00,
2013-07-23 16:44:00,85.5,69.3,29.59,WSW,257,3.0,9.0,58,0.00,,,0.47,WUHU216DAVISVP2,2013-07-23 20:44:00,
2013-07-23 16:49:00,85.1,68.4,29.59,SW,225,3.0,9.0,57,0.00,,,0.47,WUHU216DAVISVP2,2013-07-23 20:49:00,
2013-07-23 16:54:00,85.4,67.1,29.59,SSW,208,4.0,9.0,54,0.00,,,0.47,WUHU216DAVISVP2,2013-07-23 20:54:00,
2013-07-23 16:59:00,85.2,66.9,29.59,WSW,242,4.0,10.0,54,0.00,,,0.47,WUHU216DAVISVP2,2013-07-23 20:59:00,
2013-07-23 17:04:00,85.2,67.4,29.59,WSW,248,2.0,10.0,55,0.00,,,0.47,WUHU216DAVISVP2,2013-07-23 21:04:00,
2013-07-23 17:10:00,85.0,67.2,29.59,SSE,162,4.0,10.0,55,0.00,,,0.47,WUHU216DAVISVP2,2013-07-23 21:10:00,
2013-07-23 17:15:00,84.9,68.2,29.59,West,260,7.0,9.0,57,0.00,,,0.47,WUHU216DAVISVP2,2013-07-23 21:15:00,
2013-07-23 17:20:00,85.0,68.8,29.59,West,259,2.0,9.0,58,0.00,,,0.47,WUHU216DAVISVP2,2013-07-23 21:20:00,
2013-07-23 17:25:00,85.1,66.2,29.59,WNW,293,2.0,11.0,53,0.00,,,0.47,WUHU216DAVISVP2,2013-07-23 21:25:00,
2013-07-23 17:30:00,84.8,67.1,29.59,West,266,4.0,11.0,55,0.00,,,0.47,WUHU216DAVISVP2,2013-07-23 21:30:00,
2013-07-23 17:35:00,84.9,67.7,29.60,WNW,290,6.0,11.0,56,0.00,,,0.47,WUHU216DAVISVP2,2013-07-23 21:35:00,
2013-07-23 17:40:00,85.2,67.4,29.60,NNW,335,1.0,11.0,55,0.00,,,0.47,WUHU216DAVISVP2,2013-07-23 21:40:00,
2013-07-23 17:46:00,85.4,66.3,29.59,WNW,293,5.0,9.0,53,0.00,,,0.47,WUHU216DAVISVP2,2013-07-23 21:46:00,
2013-07-23 17:51:00,85.1,65.7,29.59,WSW,252,2.0,11.0,52,0.00,,,0.47,WUHU216DAVISVP2,2013-07-23 21:51:00,
2013-07-23 17:56:00,85.2,66.3,29.59,WNW,291,0.0,11.0,53,0.00,,,0.47,WUHU216DAVISVP2,2013-07-23 21:56:00,
2013-07-23 18:01:00,84.9,66.1,29.59,WNW,285,3.0,11.0,53,0.00,,,0.47,WUHU216DAVISVP2,2013-07-23 22:01:00,
2013-07-23 18:06:00,84.5,66.8,29.59,West,266,4.0,11.0,55,0.00,,,0.47,WUHU216DAVISVP2,2013-07-23 22:06:00,
2013-07-23 18:11:00,84.4,66.7,29.59,NW,313,2.0,9.0,55,0.00,,,0.47,WUHU216DAVISVP2,2013-07-23 22:11:00,
2013-07-23 18:16:00,84.3,67.1,29.60,NNW,342,2.0,8.0,56,0.00,,,0.47,WUHU216DAVISVP2,2013-07-23 22:16:00,
2013-07-23 18:21:00,84.5,67.3,29.60,West,278,1.0,7.0,56,0.00,,,0.47,WUHU216DAVISVP2,2013-07-23 22:21:00,
2013-07-23 18:26:00,83.9,67.3,29.60,NNW,327,1.0,7.0,57,0.00,,,0.47,WUHU216DAVISVP2,2013-07-23 22:26:00,
2013-07-23 18:31:00,83.6,67.3,29.60,WNW,302,1.0,7.0,58,0.00,,,0.47,WUHU216DAVISVP2,2013-07-23 22:31:00,
2013-07-23 18:36:00,83.0,66.9,29.60,NW,307,4.0,7.0,58,0.00,,,0.47,WUHU216DAVISVP2,2013-07-23 22:36:00,
2013-07-23 18:41:00,82.2,66.7,29.60,NW,319,4.0,5.0,59,0.00,,,0.47,WUHU216DAVISVP2,2013-07-23 22:41:00,
2013-07-23 18:46:00,81.9,67.4,29.60,NNW,333,2.0,4.0,61,0.00,,,0.47,WUHU216DAVISVP2,2013-07-23 22:46:00,
2013-07-23 18:52:00,81.6,67.6,29.60,NW,315,3.0,6.0,62,0.00,,,0.47,WUHU216DAVISVP2,2013-07-23 22:52:00,
2013-07-23 18:57:00,81.5,67.5,29.60,North,353,1.0,6.0,62,0.00,,,0.47,WUHU216DAVISVP2,2013-07-23 22:57:00,
2013-07-23 19:02:00,81.3,67.0,29.60,WSW,257,5.0,7.0,62,0.00,,,0.47,WUHU216DAVISVP2,2013-07-23 23:02:00,
2013-07-23 19:07:00,81.0,67.2,29.60,SW,233,0.0,7.0,63,0.00,,,0.47,WUHU216DAVISVP2,2013-07-23 23:07:00,
2013-07-23 19:12:00,80.7,66.0,29.60,NW,307,3.0,7.0,61,0.00,,,0.47,WUHU216DAVISVP2,2013-07-23 23:12:00,
2013-07-23 19:17:00,80.4,66.2,29.60,WNW,287,3.0,11.0,62,0.00,,,0.47,WUHU216DAVISVP2,2013-07-23 23:17:00,
2013-07-23 19:22:00,80.1,66.1,29.60,SW,217,3.0,11.0,62,0.00,,,0.47,WUHU216DAVISVP2,2013-07-23 23:22:00,
2013-07-23 19:27:00,79.9,66.4,29.60,WNW,283,7.0,11.0,63,0.00,,,0.47,WUHU216DAVISVP2,2013-07-23 23:27:00,
2013-07-23 19:32:00,79.7,66.2,29.60,West,269,1.0,8.0,63,0.00,,,0.47,WUHU216DAVISVP2,2013-07-23 23:32:00,
2013-07-23 19:37:00,79.5,66.5,29.60,West,278,8.0,8.0,64,0.00,,,0.47,WUHU216DAVISVP2,2013-07-23 23:37:00,
2013-07-23 19:43:00,79.4,66.8,29.61,WNW,289,3.0,8.0,65,0.00,,,0.47,WUHU216DAVISVP2,2013-07-23 23:43:00,
2013-07-23 19:48:00,79.2,66.7,29.60,WSW,242,3.0,8.0,65,0.00,,,0.47,WUHU216DAVISVP2,2013-07-23 23:48:00,
2013-07-23 19:53:00,79.1,67.0,29.61,WSW,253,0.0,8.0,66,0.00,,,0.47,WUHU216DAVISVP2,2013-07-23 23:53:00,
2013-07-23 19:58:00,78.9,67.2,29.61,West,262,2.0,8.0,67,0.00,,,0.47,WUHU216DAVISVP2,2013-07-23 23:58:00,
2013-07-23 20:03:00,78.7,67.1,29.61,West,262,1.0,7.0,67,0.00,,,0.47,WUHU216DAVISVP2,2013-07-24 00:03:00,
2013-07-23 20:08:00,78.5,67.3,29.61,WSW,242,2.0,7.0,68,0.00,,,0.47,WUHU216DAVISVP2,2013-07-24 00:08:00,
2013-07-23 20:13:00,78.4,67.2,29.61,WNW,285,0.0,8.0,68,0.00,,,0.47,WUHU216DAVISVP2,2013-07-24 00:13:00,
2013-07-23 20:18:00,78.2,67.0,29.61,SE,142,0.0,8.0,68,0.00,,,0.47,WUHU216DAVISVP2,2013-07-24 00:18:00,
2013-07-23 20:23:00,78.0,67.2,29.60,West,276,1.0,8.0,69,0.00,,,0.47,WUHU216DAVISVP2,2013-07-24 00:23:00,
2013-07-23 20:28:00,77.9,67.1,29.60,WNW,285,1.0,8.0,69,0.00,,,0.47,WUHU216DAVISVP2,2013-07-24 00:28:00,
2013-07-23 20:34:00,77.6,66.6,29.60,SW,233,5.0,7.0,69,0.00,,,0.47,WUHU216DAVISVP2,2013-07-24 00:34:00,
2013-07-23 20:39:00,77.4,66.8,29.60,WNW,285,0.0,7.0,70,0.00,,,0.47,WUHU216DAVISVP2,2013-07-24 00:39:00,
2013-07-23 20:44:00,77.2,67.3,29.60,WNW,292,3.0,7.0,71,0.00,,,0.47,WUHU216DAVISVP2,2013-07-24 00:44:00,
2013-07-23 20:49:00,77.0,67.1,29.60,WSW,238,1.0,7.0,71,0.00,,,0.47,WUHU216DAVISVP2,2013-07-24 00:49:00,
2013-07-23 20:54:00,76.7,67.2,29.60,SW,217,1.0,4.0,72,0.00,,,0.47,WUHU216DAVISVP2,2013-07-24 00:54:00,
2013-07-23 20:59:00,76.6,67.1,29.60,NW,318,1.0,4.0,72,0.00,,,0.47,WUHU216DAVISVP2,2013-07-24 00:59:00,
2013-07-23 21:04:00,76.5,67.4,29.60,SW,236,0.0,5.0,73,0.00,,,0.47,WUHU216DAVISVP2,2013-07-24 01:04:00,
2013-07-23 21:10:00,76.4,67.3,29.60,SW,218,0.0,5.0,73,0.00,,,0.47,WUHU216DAVISVP2,2013-07-24 01:10:00,
2013-07-23 21:15:00,76.3,67.2,29.61,WSW,250,3.0,5.0,73,0.00,,,0.47,WUHU216DAVISVP2,2013-07-24 01:15:00,
2013-07-23 21:20:00,76.2,67.3,29.61,WNW,296,1.0,5.0,74,0.00,,,0.47,WUHU216DAVISVP2,2013-07-24 01:20:00,
2013-07-23 21:25:00,76.1,67.2,29.61,West,261,1.0,3.0,74,0.00,,,0.47,WUHU216DAVISVP2,2013-07-24 01:25:00,
2013-07-23 21:30:00,76.0,67.1,29.61,West,277,1.0,4.0,74,0.00,,,0.47,WUHU216DAVISVP2,2013-07-24 01:30:00,
2013-07-23 21:35:00,75.9,67.0,29.61,West,278,1.0,4.0,74,0.00,,,0.47,WUHU216DAVISVP2,2013-07-24 01:35:00,
2013-07-23 21:40:00,75.8,66.9,29.62,WSW,256,2.0,5.0,74,0.00,,,0.47,WUHU216DAVISVP2,2013-07-24 01:40:00,
2013-07-23 21:45:00,75.7,67.4,29.62,West,259,4.0,5.0,75,0.00,,,0.47,WUHU216DAVISVP2,2013-07-24 01:45:00,
2013-07-23 21:50:00,75.7,67.4,29.62,West,273,2.0,5.0,75,0.00,,,0.47,WUHU216DAVISVP2,2013-07-24 01:50:00,
2013-07-23 21:56:00,75.7,67.4,29.62,West,274,2.0,5.0,75,0.00,,,0.47,WUHU216DAVISVP2,2013-07-24 01:56:00,
2013-07-23 22:01:00,75.6,67.3,29.62,WNW,297,0.0,5.0,75,0.00,,,0.47,WUHU216DAVISVP2,2013-07-24 02:01:00,
2013-07-23 22:06:00,75.5,67.2,29.63,West,264,1.0,6.0,75,0.00,,,0.47,WUHU216DAVISVP2,2013-07-24 02:06:00,
2013-07-23 22:11:00,75.4,67.1,29.63,WNW,294,2.0,6.0,75,0.00,,,0.47,WUHU216DAVISVP2,2013-07-24 02:11:00,
2013-07-23 22:16:00,75.3,67.0,29.63,WNW,297,1.0,6.0,75,0.00,,,0.47,WUHU216DAVISVP2,2013-07-24 02:16:00,
2013-07-23 22:21:00,75.3,67.0,29.63,SSW,208,4.0,6.0,75,0.00,,,0.47,WUHU216DAVISVP2,2013-07-24 02:21:00,
2013-07-23 22:26:00,75.3,67.4,29.63,West,280,1.0,6.0,76,0.00,,,0.47,WUHU216DAVISVP2,2013-07-24 02:26:00,
2013-07-23 22:32:00,75.1,67.2,29.63,West,271,2.0,6.0,76,0.00,,,0.47,WUHU216DAVISVP2,2013-07-24 02:32:00,
2013-07-23 22:37:00,75.0,67.1,29.63,NW,307,3.0,6.0,76,0.00,,,0.47,WUHU216DAVISVP2,2013-07-24 02:37:00,
2013-07-23 22:42:00,74.9,67.0,29.63,WNW,294,0.0,5.0,76,0.00,,,0.47,WUHU216DAVISVP2,2013-07-24 02:42:00,
2013-07-23 22:47:00,74.8,67.2,29.63,WNW,300,3.0,6.0,77,0.00,,,0.47,WUHU216DAVISVP2,2013-07-24 02:47:00,
2013-07-23 22:52:00,74.7,67.1,29.63,SSE,160,3.0,6.0,77,0.00,,,0.47,WUHU216DAVISVP2,2013-07-24 02:52:00,
2013-07-23 22:58:00,74.6,67.0,29.63,WSW,257,4.0,6.0,77,0.00,,,0.47,WUHU216DAVISVP2,2013-07-24 02:58:00,
2013-07-23 23:03:00,74.6,67.4,29.63,SW,214,0.0,6.0,78,0.00,,,0.47,WUHU216DAVISVP2,2013-07-24 03:03:00,
2013-07-23 23:08:00,74.6,67.3,29.63,West,271,1.0,5.0,78,0.00,,,0.47,WUHU216DAVISVP2,2013-07-24 03:08:00,
2013-07-23 23:13:00,74.6,67.7,29.63,WNW,295,2.0,7.0,79,0.00,,,0.47,WUHU216DAVISVP2,2013-07-24 03:13:00,
2013-07-23 23:18:00,74.5,67.6,29.63,West,266,2.0,7.0,79,0.00,,,0.47,WUHU216DAVISVP2,2013-07-24 03:18:00,
2013-07-23 23:23:00,74.5,67.9,29.63,WNW,284,1.0,7.0,80,0.00,,,0.47,WUHU216DAVISVP2,2013-07-24 03:23:00,
2013-07-23 23:28:00,74.5,68.4,29.64,NW,316,6.0,11.0,81,0.00,,,0.47,WUHU216DAVISVP2,2013-07-24 03:28:00,
2013-07-23 23:33:00,74.2,67.7,29.64,NW,311,4.0,13.0,80,0.00,,,0.47,WUHU216DAVISVP2,2013-07-24 03:33:00,
2013-07-23 23:39:00,73.6,67.5,29.64,West,260,4.0,13.0,81,0.00,,,0.47,WUHU216DAVISVP2,2013-07-24 03:39:00,
2013-07-23 23:44:00,72.8,66.0,29.65,NNW,330,4.0,14.0,79,0.00,,,0.47,WUHU216DAVISVP2,2013-07-24 03:44:00,
2013-07-23 23:49:00,72.4,65.2,29.65,NNW,342,2.0,14.0,78,0.00,,,0.47,WUHU216DAVISVP2,2013-07-24 03:49:00,
2013-07-23 23:54:00,72.1,64.6,29.65,WNW,302,8.0,14.0,77,0.00,,,0.47,WUHU216DAVISVP2,2013-07-24 03:54:00,
2013-07-23 23:59:00,71.7,63.5,29.66,NW,318,4.0,14.0,75,0.00,,,0.47,WUHU216DAVISVP2,2013-07-24 03:59:00,